createdAt,value
2024-01-25T00:00:00.229Z,0.00
2024-01-25T00:01:01.321Z,0.00
2024-01-25T00:02:01.837Z,0.00
2024-01-25T00:03:02.261Z,0.00
2024-01-25T00:04:03.249Z,0.00
2024-01-25T00:05:03.952Z,0.00
2024-01-25T00:06:04.508Z,0.00
2024-01-25T00:07:05.502Z,0.00
2024-01-25T00:08:05.894Z,0.00
2024-01-25T00:09:08.306Z,0.00
2024-01-25T00:10:07.315Z,0.00
2024-01-25T00:11:08.170Z,0.00
2024-01-25T00:12:09.067Z,0.00
2024-01-25T00:13:09.980Z,0.00
2024-01-25T00:14:10.846Z,0.00
2024-01-25T00:15:11.725Z,0.00
2024-01-25T00:16:12.677Z,0.00
2024-01-25T00:17:13.591Z,0.00
2024-01-25T00:18:14.533Z,0.00
2024-01-25T00:19:15.465Z,0.00
2024-01-25T00:20:16.482Z,0.00
2024-01-25T00:21:16.936Z,0.00
2024-01-25T00:22:18.009Z,0.00
2024-01-25T00:23:18.351Z,0.00
2024-01-25T00:24:19.237Z,0.00
2024-01-25T00:25:20.156Z,0.00
2024-01-25T00:26:21.054Z,0.00
2024-01-25T00:27:21.900Z,0.00
2024-01-25T00:28:22.859Z,0.00
2024-01-25T00:29:23.763Z,0.00
2024-01-25T00:30:24.638Z,0.00
2024-01-25T00:31:25.641Z,0.00
2024-01-25T00:32:26.501Z,0.00
2024-01-25T00:33:27.710Z,0.00
2024-01-25T00:34:28.304Z,0.00
2024-01-25T00:35:28.889Z,0.00
2024-01-25T00:36:29.360Z,0.00
2024-01-25T00:37:30.344Z,0.00
2024-01-25T00:38:31.199Z,0.00
2024-01-25T00:39:32.116Z,0.00
2024-01-25T00:40:32.861Z,0.00
2024-01-25T00:41:33.711Z,0.00
2024-01-25T00:42:34.629Z,0.00
2024-01-25T00:43:35.524Z,0.00
2024-01-25T00:44:36.404Z,0.00
2024-01-25T00:45:37.451Z,0.00
2024-01-25T00:46:37.815Z,0.00
2024-01-25T00:47:38.740Z,0.00
2024-01-25T00:48:39.909Z,0.00
2024-01-25T00:49:40.597Z,0.00
2024-01-25T00:50:41.082Z,0.00
2024-01-25T00:51:41.991Z,0.00
2024-01-25T00:52:42.936Z,0.00
2024-01-25T00:53:43.803Z,0.00
2024-01-25T00:54:44.769Z,0.00
2024-01-25T00:55:45.611Z,0.00
2024-01-25T00:56:46.500Z,0.00
2024-01-25T00:57:47.428Z,0.00
2024-01-25T00:58:48.322Z,0.00
2024-01-25T00:59:49.212Z,0.00
2024-01-25T01:00:50.230Z,0.00
2024-01-25T01:01:50.896Z,0.00
2024-01-25T01:02:51.284Z,0.00
2024-01-25T01:03:52.228Z,0.00
2024-01-25T01:04:53.201Z,0.00
2024-01-25T01:05:53.709Z,0.00
2024-01-25T01:06:54.222Z,0.00
2024-01-25T01:07:55.149Z,0.00
2024-01-25T01:08:56.025Z,0.00
2024-01-25T01:09:56.978Z,0.00
2024-01-25T01:10:57.846Z,0.00
2024-01-25T01:11:58.725Z,0.00
2024-01-25T01:12:59.648Z,0.00
2024-01-25T01:14:00.578Z,0.00
2024-01-25T01:15:01.459Z,0.00
2024-01-25T01:16:02.463Z,0.00
2024-01-25T01:17:02.892Z,0.00
2024-01-25T01:18:03.943Z,0.00
2024-01-25T01:19:04.484Z,0.00
2024-01-25T01:20:05.143Z,0.00
2024-01-25T01:21:05.603Z,0.00
2024-01-25T01:22:06.486Z,0.00
2024-01-25T01:23:07.378Z,0.00
2024-01-25T01:24:08.250Z,0.00
2024-01-25T01:25:09.167Z,0.00
2024-01-25T01:26:10.039Z,0.00
2024-01-25T01:27:10.895Z,0.00
2024-01-25T01:28:11.815Z,0.00
2024-01-25T01:29:12.678Z,0.00
2024-01-25T01:30:13.570Z,0.00
2024-01-25T01:31:14.534Z,0.00
2024-01-25T01:32:15.386Z,0.00
2024-01-25T01:33:16.427Z,0.00
2024-01-25T01:34:16.978Z,0.00
2024-01-25T01:35:17.536Z,0.00
2024-01-25T01:36:17.946Z,0.00
2024-01-25T01:37:18.946Z,0.00
2024-01-25T01:38:19.823Z,0.00
2024-01-25T01:39:20.690Z,0.00
2024-01-25T01:40:21.672Z,0.00
2024-01-25T01:41:22.085Z,0.00
2024-01-25T01:42:22.951Z,0.00
2024-01-25T01:43:23.876Z,0.00
2024-01-25T01:44:24.787Z,0.00
2024-01-25T01:45:25.664Z,0.00
2024-01-25T01:46:26.581Z,0.00
2024-01-25T01:47:27.551Z,0.00
2024-01-25T01:48:28.935Z,0.00
2024-01-25T01:49:29.538Z,0.00
2024-01-25T01:50:30.325Z,0.00
2024-01-25T01:51:30.825Z,0.00
2024-01-25T01:52:32.670Z,0.00
2024-01-25T01:53:32.589Z,0.00
2024-01-25T01:54:33.486Z,0.00
2024-01-25T01:55:34.335Z,0.00
2024-01-25T01:56:35.207Z,0.00
2024-01-25T01:57:36.148Z,0.00
2024-01-25T01:58:37.016Z,0.00
2024-01-25T01:59:37.920Z,0.00
2024-01-25T02:00:38.963Z,0.00
2024-01-25T02:01:39.604Z,0.00
2024-01-25T02:02:40.002Z,0.00
2024-01-25T02:03:41.005Z,0.00
2024-01-25T02:04:41.482Z,0.00
2024-01-25T02:05:42.436Z,0.00
2024-01-25T02:06:43.564Z,0.00
2024-01-25T02:07:44.104Z,0.00
2024-01-25T02:08:44.618Z,0.00
2024-01-25T02:09:45.609Z,0.00
2024-01-25T02:10:46.457Z,0.00
2024-01-25T02:11:47.344Z,0.00
2024-01-25T02:12:48.255Z,0.00
2024-01-25T02:13:49.119Z,0.00
2024-01-25T02:14:49.768Z,0.00
2024-01-25T02:15:50.576Z,0.00
2024-01-25T02:16:51.150Z,0.00
2024-01-25T02:17:52.040Z,0.00
2024-01-25T02:18:52.962Z,0.00
2024-01-25T02:19:53.910Z,0.00
2024-01-25T02:20:54.787Z,0.00
2024-01-25T02:21:55.720Z,0.00
2024-01-25T02:22:56.291Z,0.00
2024-01-25T02:23:57.206Z,0.00
2024-01-25T02:24:58.153Z,0.00
2024-01-25T02:25:58.733Z,0.00
2024-01-25T02:26:59.681Z,0.00
2024-01-25T02:28:00.438Z,0.00
2024-01-25T02:29:01.340Z,0.00
2024-01-25T02:30:02.225Z,0.00
2024-01-25T02:31:03.201Z,0.00
2024-01-25T02:32:04.063Z,0.00
2024-01-25T02:33:05.004Z,0.00
2024-01-25T02:34:06.077Z,0.00
2024-01-25T02:35:06.568Z,0.00
2024-01-25T02:36:07.473Z,0.00
2024-01-25T02:37:08.391Z,0.00
2024-01-25T02:38:09.242Z,0.00
2024-01-25T02:39:10.198Z,0.00
2024-01-25T02:40:11.086Z,0.00
2024-01-25T02:41:11.617Z,0.00
2024-01-25T02:42:12.505Z,0.00
2024-01-25T02:43:13.425Z,0.00
2024-01-25T02:44:14.285Z,0.00
2024-01-25T02:45:15.184Z,0.00
2024-01-25T02:46:16.149Z,0.00
2024-01-25T02:47:17.023Z,0.00
2024-01-25T02:48:18.085Z,0.00
2024-01-25T02:49:18.651Z,0.00
2024-01-25T02:50:19.167Z,0.00
2024-01-25T02:51:20.002Z,0.00
2024-01-25T02:52:21.013Z,0.00
2024-01-25T02:53:21.446Z,0.00
2024-01-25T02:54:22.355Z,0.00
2024-01-25T02:55:23.270Z,0.00
2024-01-25T02:56:24.104Z,0.00
2024-01-25T02:57:24.986Z,0.00
2024-01-25T02:58:25.897Z,0.00
2024-01-25T02:59:26.761Z,0.00
2024-01-25T03:00:27.666Z,0.00
2024-01-25T03:01:28.631Z,0.00
2024-01-25T03:02:29.484Z,0.00
2024-01-25T03:03:30.459Z,0.00
2024-01-25T03:04:31.448Z,0.00
2024-01-25T03:05:32.241Z,0.00
2024-01-25T03:06:32.751Z,0.00
2024-01-25T03:07:33.697Z,0.00
2024-01-25T03:08:34.558Z,0.00
2024-01-25T03:09:35.499Z,0.00
2024-01-25T03:10:36.338Z,0.00
2024-01-25T03:11:37.223Z,0.00
2024-01-25T03:12:38.159Z,0.00
2024-01-25T03:13:38.615Z,0.00
2024-01-25T03:14:39.472Z,0.00
2024-01-25T03:15:40.413Z,0.00
2024-01-25T03:16:41.269Z,0.00
2024-01-25T03:17:42.173Z,0.00
2024-01-25T03:18:43.073Z,0.00
2024-01-25T03:19:44.106Z,0.00
2024-01-25T03:20:44.517Z,0.00
2024-01-25T03:21:45.056Z,0.00
2024-01-25T03:22:45.958Z,0.00
2024-01-25T03:23:46.821Z,0.00
2024-01-25T03:24:47.750Z,0.00
2024-01-25T03:25:48.610Z,0.00
2024-01-25T03:26:49.478Z,0.00
2024-01-25T03:27:50.403Z,0.00
2024-01-25T03:28:51.261Z,0.00
2024-01-25T03:29:52.170Z,0.00
2024-01-25T03:30:52.904Z,0.00
2024-01-25T03:31:53.327Z,0.00
2024-01-25T03:32:54.312Z,0.00
2024-01-25T03:33:55.403Z,0.00
2024-01-25T03:34:56.064Z,0.00
2024-01-25T03:35:56.545Z,0.00
2024-01-25T03:36:57.429Z,0.00
2024-01-25T03:37:58.298Z,0.00
2024-01-25T03:38:59.193Z,0.00
2024-01-25T03:40:00.152Z,0.00
2024-01-25T03:41:01.065Z,0.00
2024-01-25T03:42:01.923Z,0.00
2024-01-25T03:43:13.505Z,0.00
2024-01-25T03:44:04.639Z,0.00
2024-01-25T03:45:04.466Z,0.00
2024-01-25T03:46:05.381Z,0.00
2024-01-25T03:47:06.244Z,0.00
2024-01-25T03:48:07.174Z,0.00
2024-01-25T03:49:08.093Z,0.00
2024-01-25T03:50:09.181Z,0.00
2024-01-25T03:51:09.554Z,0.00
2024-01-25T03:52:10.464Z,0.00
2024-01-25T03:53:11.334Z,0.00
2024-01-25T03:54:12.200Z,0.00
2024-01-25T03:55:13.157Z,0.00
2024-01-25T03:56:13.982Z,0.00
2024-01-25T03:57:14.944Z,0.00
2024-01-25T03:58:15.909Z,0.00
2024-01-25T03:59:16.763Z,0.00
2024-01-25T04:00:17.633Z,0.00
2024-01-25T04:01:18.578Z,0.00
2024-01-25T04:02:19.250Z,0.00
2024-01-25T04:03:20.205Z,0.00
2024-01-25T04:04:21.214Z,0.00
2024-01-25T04:05:21.809Z,0.00
2024-01-25T04:06:22.353Z,0.00
2024-01-25T04:07:23.316Z,0.00
2024-01-25T04:08:24.156Z,0.00
2024-01-25T04:09:25.031Z,0.00
2024-01-25T04:10:25.955Z,0.00
2024-01-25T04:11:29.104Z,0.00
2024-01-25T04:12:27.598Z,0.00
2024-01-25T04:13:28.640Z,0.00
2024-01-25T04:14:29.009Z,0.00
2024-01-25T04:15:29.896Z,0.00
2024-01-25T04:16:30.811Z,0.00
2024-01-25T04:17:31.674Z,0.00
2024-01-25T04:18:32.492Z,0.00
2024-01-25T04:19:33.098Z,0.00
2024-01-25T04:20:33.678Z,0.00
2024-01-25T04:21:34.109Z,0.00
2024-01-25T04:22:34.989Z,0.00
2024-01-25T04:23:35.876Z,0.00
2024-01-25T04:24:36.820Z,0.00
2024-01-25T04:25:37.702Z,0.00
2024-01-25T04:26:38.577Z,0.00
2024-01-25T04:27:39.465Z,0.00
2024-01-25T04:28:40.344Z,0.00
2024-01-25T04:29:41.213Z,0.00
2024-01-25T04:30:42.154Z,0.00
2024-01-25T04:31:43.023Z,0.00
2024-01-25T04:32:44.012Z,0.00
2024-01-25T04:33:48.298Z,0.00
2024-01-25T04:34:45.997Z,0.00
2024-01-25T04:35:46.430Z,0.00
2024-01-25T04:36:47.406Z,0.00
2024-01-25T04:37:48.245Z,0.00
2024-01-25T04:38:49.124Z,0.00
2024-01-25T04:39:50.015Z,0.00
2024-01-25T04:40:50.944Z,0.00
2024-01-25T04:41:51.799Z,0.00
2024-01-25T04:42:52.770Z,0.00
2024-01-25T04:43:53.597Z,0.00
2024-01-25T04:44:54.479Z,0.00
2024-01-25T04:45:55.419Z,0.00
2024-01-25T04:46:56.277Z,0.00
2024-01-25T04:47:57.266Z,0.00
2024-01-25T04:48:58.265Z,0.00
2024-01-25T04:49:58.770Z,0.00
2024-01-25T04:50:59.185Z,0.00
2024-01-25T04:52:00.111Z,0.00
2024-01-25T04:53:03.222Z,0.00
2024-01-25T04:54:01.724Z,0.00
2024-01-25T04:55:02.684Z,0.00
2024-01-25T04:56:03.613Z,0.00
2024-01-25T04:57:04.477Z,0.00
2024-01-25T04:58:05.435Z,0.00
2024-01-25T04:59:06.306Z,0.00
2024-01-25T05:00:07.215Z,0.00
2024-01-25T05:01:08.380Z,0.00
2024-01-25T05:02:09.134Z,0.00
2024-01-25T05:03:09.616Z,0.00
2024-01-25T05:04:10.619Z,0.00
2024-01-25T05:05:11.079Z,0.00
2024-01-25T05:06:11.951Z,0.00
2024-01-25T05:07:13.017Z,0.00
2024-01-25T05:08:13.571Z,0.00
2024-01-25T05:09:13.950Z,0.00
2024-01-25T05:10:14.969Z,0.00
2024-01-25T05:11:15.382Z,0.00
2024-01-25T05:12:16.233Z,0.00
2024-01-25T05:13:17.270Z,0.00
2024-01-25T05:14:17.654Z,0.00
2024-01-25T05:15:18.534Z,0.00
2024-01-25T05:16:19.563Z,0.00
2024-01-25T05:17:19.909Z,0.00
2024-01-25T05:18:20.855Z,0.00
2024-01-25T05:19:21.831Z,0.00
2024-01-25T05:20:22.515Z,0.00
2024-01-25T05:21:22.906Z,0.00
2024-01-25T05:22:23.891Z,0.00
2024-01-25T05:23:24.309Z,0.00
2024-01-25T05:24:25.190Z,0.00
2024-01-25T05:25:26.150Z,0.00
2024-01-25T05:26:27.099Z,0.00
2024-01-25T05:27:27.957Z,0.00
2024-01-25T05:28:29.144Z,0.00
2024-01-25T05:29:29.510Z,0.00
2024-01-25T05:30:30.459Z,0.00
2024-01-25T05:31:31.382Z,0.00
2024-01-25T05:32:32.326Z,0.00
2024-01-25T05:33:33.446Z,0.00
2024-01-25T05:34:34.101Z,0.00
2024-01-25T05:35:34.924Z,0.00
2024-01-25T05:36:35.391Z,0.00
2024-01-25T05:37:36.252Z,0.00
2024-01-25T05:38:37.160Z,0.00
2024-01-25T05:39:38.076Z,0.00
2024-01-25T05:40:38.928Z,0.00
2024-01-25T05:41:39.842Z,0.00
2024-01-25T05:42:40.769Z,0.00
2024-01-25T05:43:41.633Z,0.00
2024-01-25T05:44:42.579Z,0.00
2024-01-25T05:45:43.432Z,0.00
2024-01-25T05:46:44.293Z,0.00
2024-01-25T05:47:44.947Z,0.00
2024-01-25T05:48:46.018Z,0.00
2024-01-25T05:49:46.542Z,0.00
2024-01-25T05:50:47.430Z,0.00
2024-01-25T05:51:48.305Z,0.00
2024-01-25T05:52:49.205Z,0.00
2024-01-25T05:53:49.997Z,0.00
2024-01-25T05:54:50.994Z,0.00
2024-01-25T05:55:51.349Z,0.00
2024-01-25T05:56:52.162Z,0.00
2024-01-25T05:57:53.102Z,0.00
2024-01-25T05:58:53.971Z,0.00
2024-01-25T05:59:54.842Z,0.00
2024-01-25T06:00:55.825Z,0.00
2024-01-25T06:01:56.461Z,0.00
2024-01-25T06:02:57.154Z,0.00
2024-01-25T06:03:57.668Z,0.00
2024-01-25T06:04:58.180Z,0.00
2024-01-25T06:05:59.380Z,0.00
2024-01-25T06:07:00.052Z,0.00
2024-01-25T06:08:00.692Z,0.00
2024-01-25T06:09:11.077Z,0.00
2024-01-25T06:10:03.067Z,0.00
2024-01-25T06:11:02.956Z,0.00
2024-01-25T06:12:03.945Z,0.00
2024-01-25T06:13:04.416Z,0.00
2024-01-25T06:14:05.340Z,0.00
2024-01-25T06:15:06.182Z,0.00
2024-01-25T06:16:07.130Z,0.00
2024-01-25T06:17:08.028Z,0.00
2024-01-25T06:18:08.958Z,0.00
2024-01-25T06:19:09.996Z,0.00
2024-01-25T06:20:10.543Z,0.00
2024-01-25T06:21:10.911Z,0.00
2024-01-25T06:22:11.829Z,0.00
2024-01-25T06:23:12.715Z,0.00
2024-01-25T06:24:13.612Z,0.00
2024-01-25T06:25:14.532Z,0.00
2024-01-25T06:26:15.375Z,0.00
2024-01-25T06:27:16.270Z,0.00
2024-01-25T06:28:16.821Z,0.00
2024-01-25T06:29:17.695Z,0.00
2024-01-25T06:30:18.588Z,0.00
2024-01-25T06:31:19.565Z,0.00
2024-01-25T06:32:26.421Z,0.00
2024-01-25T06:33:22.277Z,0.00
2024-01-25T06:34:21.808Z,0.00
2024-01-25T06:35:22.216Z,1.00
2024-01-25T06:36:23.124Z,0.00
2024-01-25T06:37:24.039Z,0.00
2024-01-25T06:38:24.933Z,0.00
2024-01-25T06:39:25.815Z,0.00
2024-01-25T06:40:26.758Z,1.00
2024-01-25T06:41:27.613Z,1.00
2024-01-25T06:42:28.463Z,1.00
2024-01-25T06:43:29.286Z,1.00
2024-01-25T06:44:30.121Z,1.00
2024-01-25T06:45:31.011Z,1.00
2024-01-25T06:46:31.920Z,1.00
2024-01-25T06:47:32.709Z,1.00
2024-01-25T06:48:33.435Z,2.00
2024-01-25T06:49:33.887Z,2.00
2024-01-25T06:50:34.920Z,1.00
2024-01-25T06:51:35.346Z,1.00
2024-01-25T06:52:36.191Z,1.00
2024-01-25T06:53:37.004Z,1.00
2024-01-25T06:54:37.882Z,1.00
2024-01-25T06:55:38.686Z,1.00
2024-01-25T06:56:39.509Z,1.00
2024-01-25T06:57:40.464Z,1.00
2024-01-25T06:58:41.239Z,2.00
2024-01-25T06:59:41.899Z,2.00
2024-01-25T07:00:42.792Z,2.00
2024-01-25T07:01:43.548Z,3.00
2024-01-25T07:02:44.192Z,2.00
2024-01-25T07:03:45.588Z,2.00
2024-01-25T07:04:46.016Z,6.00
2024-01-25T07:05:46.915Z,4.00
2024-01-25T07:06:47.552Z,7.00
2024-01-25T07:07:48.167Z,9.00
2024-01-25T07:08:48.571Z,9.00
2024-01-25T07:09:49.619Z,9.00
2024-01-25T07:10:50.470Z,6.00
2024-01-25T07:11:51.306Z,4.00
2024-01-25T07:12:52.248Z,6.00
2024-01-25T07:13:52.639Z,8.00
2024-01-25T07:14:53.282Z,10.00
2024-01-25T07:15:54.061Z,8.00
2024-01-25T07:16:54.950Z,11.00
2024-01-25T07:17:55.868Z,15.00
2024-01-25T07:18:56.743Z,14.00
2024-01-25T07:19:57.610Z,12.00
2024-01-25T07:20:58.450Z,10.00
2024-01-25T07:21:59.312Z,12.00
2024-01-25T07:23:00.091Z,12.00
2024-01-25T07:24:00.931Z,16.00
2024-01-25T07:25:01.826Z,9.00
2024-01-25T07:26:02.647Z,7.00
2024-01-25T07:27:03.481Z,14.00
2024-01-25T07:28:04.468Z,12.00
2024-01-25T07:29:05.263Z,12.00
2024-01-25T07:30:06.088Z,20.00
2024-01-25T07:31:06.940Z,22.00
2024-01-25T07:32:07.746Z,21.00
2024-01-25T07:33:08.608Z,19.00
2024-01-25T07:34:09.523Z,21.00
2024-01-25T07:35:10.445Z,24.00
2024-01-25T07:36:11.292Z,25.00
2024-01-25T07:37:12.145Z,22.00
2024-01-25T07:38:12.969Z,18.00
2024-01-25T07:39:13.782Z,22.00
2024-01-25T07:40:14.714Z,27.00
2024-01-25T07:41:15.567Z,26.00
2024-01-25T07:42:16.388Z,20.00
2024-01-25T07:43:17.283Z,24.00
2024-01-25T07:44:18.069Z,29.00
2024-01-25T07:45:18.901Z,34.00
2024-01-25T07:46:19.786Z,31.00
2024-01-25T07:47:20.590Z,34.00
2024-01-25T07:48:21.482Z,35.00
2024-01-25T07:49:22.453Z,38.00
2024-01-25T07:50:22.996Z,43.00
2024-01-25T07:51:23.435Z,52.00
2024-01-25T07:52:27.277Z,65.00
2024-01-25T07:53:24.928Z,66.00
2024-01-25T07:54:25.773Z,71.00
2024-01-25T07:55:26.631Z,79.00
2024-01-25T07:56:27.439Z,78.00
2024-01-25T07:57:28.249Z,88.00
2024-01-25T07:58:29.153Z,81.00
2024-01-25T07:59:29.925Z,69.00
2024-01-25T08:00:30.748Z,62.00
2024-01-25T08:01:31.901Z,86.00
2024-01-25T08:02:32.443Z,105.00
2024-01-25T08:03:33.433Z,109.00
2024-01-25T08:04:33.927Z,90.00
2024-01-25T08:05:41.357Z,93.00
2024-01-25T08:06:36.583Z,119.00
2024-01-25T08:07:36.486Z,129.00
2024-01-25T08:08:37.336Z,82.00
2024-01-25T08:09:38.216Z,78.00
2024-01-25T08:10:39.014Z,100.00
2024-01-25T08:11:39.813Z,95.00
2024-01-25T08:12:45.420Z,77.00
2024-01-25T08:13:42.409Z,79.00
2024-01-25T08:14:42.224Z,82.00
2024-01-25T08:15:43.188Z,79.00
2024-01-25T08:16:44.144Z,100.00
2024-01-25T08:17:45.132Z,146.00
2024-01-25T08:18:45.786Z,137.00
2024-01-25T08:19:47.893Z,91.00
2024-01-25T08:20:47.185Z,77.00
2024-01-25T08:21:47.611Z,81.00
2024-01-25T08:22:48.468Z,85.00
2024-01-25T08:23:49.340Z,92.00
2024-01-25T08:24:50.230Z,95.00
2024-01-25T08:25:51.089Z,98.00
2024-01-25T08:26:51.924Z,105.00
2024-01-25T08:27:52.889Z,88.00
2024-01-25T08:28:53.818Z,90.00
2024-01-25T08:29:54.652Z,86.00
2024-01-25T08:30:55.580Z,67.00
2024-01-25T08:31:56.374Z,110.00
2024-01-25T08:32:57.286Z,157.00
2024-01-25T08:33:58.364Z,154.00
2024-01-25T08:35:00.429Z,141.00
2024-01-25T08:35:59.399Z,164.00
2024-01-25T08:37:00.363Z,202.00
2024-01-25T08:38:01.181Z,183.00
2024-01-25T08:39:01.999Z,133.00
2024-01-25T08:40:02.881Z,90.00
2024-01-25T08:41:03.716Z,96.00
2024-01-25T08:42:04.537Z,147.00
2024-01-25T08:43:05.385Z,226.00
2024-01-25T08:44:06.209Z,260.00
2024-01-25T08:45:07.042Z,188.00
2024-01-25T08:46:07.926Z,184.00
2024-01-25T08:47:08.744Z,144.00
2024-01-25T08:48:09.622Z,97.00
2024-01-25T08:49:10.850Z,116.00
2024-01-25T08:50:11.590Z,215.00
2024-01-25T08:51:12.107Z,235.00
2024-01-25T08:52:12.998Z,178.00
2024-01-25T08:53:13.821Z,123.00
2024-01-25T08:54:14.649Z,106.00
2024-01-25T08:55:15.544Z,152.00
2024-01-25T08:56:16.440Z,351.00
2024-01-25T08:57:17.227Z,474.00
2024-01-25T08:58:18.113Z,330.00
2024-01-25T08:59:18.950Z,269.00
2024-01-25T09:00:19.935Z,343.00
2024-01-25T09:01:20.451Z,295.00
2024-01-25T09:02:21.398Z,229.00
2024-01-25T09:03:22.205Z,235.00
2024-01-25T09:04:25.745Z,237.00
2024-01-25T09:05:23.979Z,260.00
2024-01-25T09:06:24.920Z,246.00
2024-01-25T09:07:25.872Z,266.00
2024-01-25T09:08:26.896Z,248.00
2024-01-25T09:09:27.270Z,280.00
2024-01-25T09:10:28.173Z,225.00
2024-01-25T09:11:28.980Z,268.00
2024-01-25T09:12:29.807Z,310.00
2024-01-25T09:13:30.775Z,321.00
2024-01-25T09:14:31.226Z,305.00
2024-01-25T09:15:31.854Z,336.00
2024-01-25T09:16:32.324Z,440.00
2024-01-25T09:17:33.267Z,431.00
2024-01-25T09:18:34.431Z,393.00
2024-01-25T09:19:34.998Z,389.00
2024-01-25T09:20:35.481Z,463.00
2024-01-25T09:21:36.337Z,424.00
2024-01-25T09:22:37.237Z,474.00
2024-01-25T09:23:38.053Z,831.00
2024-01-25T09:24:38.902Z,555.00
2024-01-25T09:25:39.769Z,707.00
2024-01-25T09:26:40.607Z,584.00
2024-01-25T09:27:41.691Z,587.00
2024-01-25T09:28:42.659Z,448.00
2024-01-25T09:29:43.620Z,359.00
2024-01-25T09:30:44.326Z,313.00
2024-01-25T09:31:44.916Z,283.00
2024-01-25T09:32:45.888Z,254.00
2024-01-25T09:33:46.573Z,275.00
2024-01-25T09:34:47.054Z,329.00
2024-01-25T09:35:47.674Z,336.00
2024-01-25T09:36:48.353Z,327.00
2024-01-25T09:37:49.246Z,301.00
2024-01-25T09:38:50.075Z,301.00
2024-01-25T09:39:50.927Z,251.00
2024-01-25T09:40:51.657Z,391.00
2024-01-25T09:41:52.486Z,403.00
2024-01-25T09:42:53.328Z,593.00
2024-01-25T09:43:54.154Z,736.00
2024-01-25T09:44:55.001Z,668.00
2024-01-25T09:45:55.622Z,669.00
2024-01-25T09:46:56.510Z,660.00
2024-01-25T09:47:57.519Z,665.00
2024-01-25T09:48:58.090Z,625.00
2024-01-25T09:49:58.577Z,658.00
2024-01-25T09:50:59.577Z,720.00
2024-01-25T09:52:00.015Z,767.00
2024-01-25T09:53:00.858Z,818.00
2024-01-25T09:54:01.726Z,777.00
2024-01-25T09:55:02.701Z,737.00
2024-01-25T09:56:03.085Z,725.00
2024-01-25T09:57:03.912Z,791.00
2024-01-25T09:58:04.797Z,806.00
2024-01-25T09:59:05.569Z,699.00
2024-01-25T10:00:06.447Z,763.00
2024-01-25T10:01:07.362Z,738.00
2024-01-25T10:02:08.315Z,622.00
2024-01-25T10:03:09.158Z,573.00
2024-01-25T10:04:10.030Z,551.00
2024-01-25T10:05:10.873Z,551.00
2024-01-25T10:06:11.383Z,479.00
2024-01-25T10:07:12.305Z,368.00
2024-01-25T10:08:13.278Z,342.00
2024-01-25T10:09:14.146Z,390.00
2024-01-25T10:10:15.078Z,569.00
2024-01-25T10:11:15.488Z,636.00
2024-01-25T10:12:18.699Z,541.00
2024-01-25T10:13:17.317Z,510.00
2024-01-25T10:14:18.142Z,459.00
2024-01-25T10:15:19.012Z,495.00
2024-01-25T10:16:19.894Z,473.00
2024-01-25T10:17:20.714Z,357.00
2024-01-25T10:18:28.925Z,376.00
2024-01-25T10:19:23.532Z,396.00
2024-01-25T10:20:23.405Z,604.00
2024-01-25T10:21:24.099Z,631.00
2024-01-25T10:22:24.652Z,501.00
2024-01-25T10:23:25.131Z,478.00
2024-01-25T10:24:26.122Z,455.00
2024-01-25T10:25:26.879Z,412.00
2024-01-25T10:26:27.754Z,376.00
2024-01-25T10:27:28.555Z,418.00
2024-01-25T10:28:30.023Z,412.00
2024-01-25T10:29:30.220Z,456.00
2024-01-25T10:30:30.707Z,394.00
2024-01-25T10:31:32.243Z,418.00
2024-01-25T10:32:32.184Z,681.00
2024-01-25T10:33:32.830Z,726.00
2024-01-25T10:34:33.448Z,595.00
2024-01-25T10:35:34.482Z,511.00
2024-01-25T10:36:35.211Z,473.00
2024-01-25T10:37:36.155Z,571.00
2024-01-25T10:38:36.562Z,475.00
2024-01-25T10:39:37.570Z,479.00
2024-01-25T10:40:38.354Z,487.00
2024-01-25T10:41:39.192Z,530.00
2024-01-25T10:42:40.067Z,570.00
2024-01-25T10:43:41.007Z,585.00
2024-01-25T10:44:41.805Z,623.00
2024-01-25T10:45:42.426Z,603.00
2024-01-25T10:46:43.392Z,551.00
2024-01-25T10:47:44.266Z,673.00
2024-01-25T10:48:45.250Z,522.00
2024-01-25T10:49:45.701Z,478.00
2024-01-25T10:50:46.551Z,617.00
2024-01-25T10:51:46.993Z,637.00
2024-01-25T10:52:48.357Z,532.00
2024-01-25T10:53:48.671Z,520.00
2024-01-25T10:54:49.506Z,411.00
2024-01-25T10:55:50.305Z,603.00
2024-01-25T10:56:51.127Z,556.00
2024-01-25T10:57:51.748Z,574.00
2024-01-25T10:58:52.474Z,681.00
2024-01-25T10:59:53.278Z,698.00
2024-01-25T11:00:54.267Z,674.00
2024-01-25T11:01:54.715Z,674.00
2024-01-25T11:02:55.567Z,623.00
2024-01-25T11:03:56.521Z,599.00
2024-01-25T11:04:57.567Z,537.00
2024-01-25T11:05:57.980Z,558.00
2024-01-25T11:06:58.907Z,542.00
2024-01-25T11:07:59.781Z,546.00
2024-01-25T11:09:00.564Z,503.00
2024-01-25T11:10:01.453Z,452.00
2024-01-25T11:11:02.284Z,520.00
2024-01-25T11:12:03.124Z,570.00
2024-01-25T11:13:03.996Z,542.00
2024-01-25T11:14:04.801Z,471.00
2024-01-25T11:15:05.629Z,523.00
2024-01-25T11:16:06.489Z,566.00
2024-01-25T11:17:07.365Z,563.00
2024-01-25T11:18:08.270Z,496.00
2024-01-25T11:19:09.346Z,569.00
2024-01-25T11:20:09.864Z,551.00
2024-01-25T11:21:10.238Z,527.00
2024-01-25T11:22:11.144Z,447.00
2024-01-25T11:23:11.941Z,478.00
2024-01-25T11:24:12.796Z,540.00
2024-01-25T11:25:13.675Z,674.00
2024-01-25T11:26:14.518Z,606.00
2024-01-25T11:27:15.353Z,550.00
2024-01-25T11:28:16.227Z,522.00
2024-01-25T11:29:17.011Z,477.00
2024-01-25T11:30:17.896Z,421.00
2024-01-25T11:31:18.761Z,409.00
2024-01-25T11:32:19.569Z,397.00
2024-01-25T11:33:20.526Z,438.00
2024-01-25T11:34:21.030Z,402.00
2024-01-25T11:35:24.150Z,431.00
2024-01-25T11:36:22.561Z,513.00
2024-01-25T11:37:23.439Z,456.00
2024-01-25T11:38:24.313Z,561.00
2024-01-25T11:39:25.147Z,530.00
2024-01-25T11:40:26.165Z,496.00
2024-01-25T11:41:26.490Z,478.00
2024-01-25T11:42:27.310Z,539.00
2024-01-25T11:43:28.209Z,449.00
2024-01-25T11:44:29.049Z,392.00
2024-01-25T11:45:29.944Z,498.00
2024-01-25T11:46:31.806Z,470.00
2024-01-25T11:47:31.700Z,402.00
2024-01-25T11:48:32.677Z,657.00
2024-01-25T11:49:33.576Z,611.00
2024-01-25T11:50:34.504Z,603.00
2024-01-25T11:51:35.438Z,611.00
2024-01-25T11:52:36.421Z,625.00
2024-01-25T11:53:36.897Z,662.00
2024-01-25T11:54:37.873Z,667.00
2024-01-25T11:55:38.831Z,671.00
2024-01-25T11:56:39.677Z,707.00
2024-01-25T11:57:40.532Z,750.00
2024-01-25T11:58:42.316Z,718.00
2024-01-25T11:59:42.018Z,699.00
2024-01-25T12:00:42.929Z,796.00
2024-01-25T12:01:44.025Z,734.00
2024-01-25T12:02:44.390Z,761.00
2024-01-25T12:03:45.245Z,686.00
2024-01-25T12:04:46.148Z,688.00
2024-01-25T12:05:47.110Z,675.00
2024-01-25T12:06:48.954Z,477.00
2024-01-25T12:07:49.067Z,1000.00
2024-01-25T12:08:49.703Z,814.00
2024-01-25T12:09:51.803Z,668.00
2024-01-25T12:10:50.782Z,708.00
2024-01-25T12:11:51.614Z,770.00
2024-01-25T12:12:52.249Z,737.00
2024-01-25T12:13:53.229Z,723.00
2024-01-25T12:14:54.064Z,709.00
2024-01-25T12:15:54.943Z,741.00
2024-01-25T12:16:55.798Z,754.00
2024-01-25T12:17:56.770Z,759.00
2024-01-25T12:18:57.432Z,739.00
2024-01-25T12:19:57.967Z,753.00
2024-01-25T12:20:58.932Z,779.00
2024-01-25T12:21:59.771Z,767.00
2024-01-25T12:23:00.604Z,771.00
2024-01-25T12:24:01.492Z,732.00
2024-01-25T12:25:02.481Z,733.00
2024-01-25T12:26:03.341Z,723.00
2024-01-25T12:27:04.186Z,705.00
2024-01-25T12:28:07.232Z,725.00
2024-01-25T12:29:05.645Z,723.00
2024-01-25T12:30:06.484Z,757.00
2024-01-25T12:31:07.527Z,797.00
2024-01-25T12:32:08.713Z,745.00
2024-01-25T12:33:08.655Z,713.00
2024-01-25T12:34:09.222Z,768.00
2024-01-25T12:35:09.766Z,799.00
2024-01-25T12:36:10.368Z,765.00
2024-01-25T12:37:10.824Z,685.00
2024-01-25T12:38:11.722Z,610.00
2024-01-25T12:39:13.548Z,552.00
2024-01-25T12:40:13.326Z,542.00
2024-01-25T12:41:14.279Z,572.00
2024-01-25T12:42:15.189Z,566.00
2024-01-25T12:43:16.075Z,551.00
2024-01-25T12:44:16.927Z,587.00
2024-01-25T12:45:17.847Z,615.00
2024-01-25T12:46:26.408Z,642.00
2024-01-25T12:47:20.569Z,658.00
2024-01-25T12:48:20.181Z,718.00
2024-01-25T12:49:20.660Z,727.00
2024-01-25T12:50:21.482Z,684.00
2024-01-25T12:51:22.336Z,706.00
2024-01-25T12:52:23.155Z,724.00
2024-01-25T12:53:23.974Z,695.00
2024-01-25T12:54:24.859Z,546.00
2024-01-25T12:55:25.743Z,386.00
2024-01-25T12:56:26.358Z,671.00
2024-01-25T12:57:27.198Z,825.00
2024-01-25T12:58:28.049Z,487.00
2024-01-25T12:59:28.882Z,577.00
2024-01-25T13:00:29.803Z,632.00
2024-01-25T13:01:30.757Z,718.00
2024-01-25T13:02:31.613Z,1218.00
2024-01-25T13:03:32.099Z,495.00
2024-01-25T13:04:33.151Z,850.00
2024-01-25T13:05:33.688Z,731.00
2024-01-25T13:06:34.535Z,789.00
2024-01-25T13:07:35.349Z,1099.00